Flight Track Log - Related Links

Times and Time Zones

All times are in EDT time to prevent confusion due to time zone crossing. See the UAL4180 flight status page for this flight to view local times or setup timezone preferences in your user account.

Time Position Orientation Groundspeed Altitude Reporting Facility
EDT Latitude Longitude Course Direction KTS MPH feet Rate Location/Type
Mon 12:11:35 PM 29.9803 -95.2956 27° Northeast 173 199 900  Level Houston Center
Mon 12:12:49 PM 30.0411 -95.2711 19° North 203 234 3,500 1,978 Climbing Houston Center
Mon 12:13:06 PM 30.0494 -95.2672 22° Northeast 187 215 3,900 1,258 Climbing Houston Center
Mon 12:13:51 PM 30.0992 -95.2617 North 241 277 4,800 1,238 Climbing Houston Center
Mon 12:14:09 PM 30.1144 -95.2583 11° North 237 273 5,200 2,262 Climbing Houston Center
Mon 12:14:52 PM 30.1775 -95.2472 North 277 319 7,100 2,129 Climbing Houston Center
Mon 12:15:00 PM 30.4069 -95.1632 23° Northeast  Level FlightAware Approximate
Mon 12:15:11 PM 30.1897 -95.2461 North 269 310 7,400  Level Houston Center
Mon 12:16:00 PM 30.5078 -95.1053 27° Northeast  Level FlightAware Approximate
Mon 12:16:13 PM 30.2664 -95.2311 10° North 278 320 9,800  Level Houston Center
Mon 12:17:15 PM 30.3611 -95.1953 18° North 298 343 11,500 1,016 Climbing Houston Center
Mon 12:18:17 PM 30.4492 -95.1600 19° North 343 395 11,900 677 Climbing Houston Center
Mon 12:19:19 PM 30.5439 -95.1028 27° Northeast 378 435 12,900 1,403 Climbing Houston Center
Mon 12:20:21 PM 30.6544 -95.0350 28° Northeast 373 429 14,800 1,536 Climbing Houston Center
Mon 12:21:24 PM 30.7472 -94.9764 28° Northeast 377 434 16,100 1,296 Climbing Houston Center
Mon 12:22:26 PM 30.8392 -94.9192 28° Northeast 375 432 17,500 1,355 Climbing Houston Center
Mon 12:23:28 PM 30.9308 -94.8625 28° Northeast 374 430 18,900 1,339 Climbing Houston Center
Mon 12:24:18 PM 31.0031 -94.8178 28° Northeast 369 425 20,000 1,309 Climbing Fort Worth Center
Mon 12:25:18 PM 31.0978 -94.7594 28° Northeast 369 425 21,300 1,350 Climbing Fort Worth Center
Mon 12:26:18 PM 31.1883 -94.6986 30° Northeast 369 425 22,700 1,400 Climbing Fort Worth Center
Mon 12:27:18 PM 31.2808 -94.6350 30° Northeast 374 430 24,100 1,400 Climbing Fort Worth Center
Mon 12:28:18 PM 31.3733 -94.5714 30° Northeast 374 430 25,500 1,450 Climbing Fort Worth Center
Mon 12:29:18 PM 31.4742 -94.5003 31° Northeast 374 430 27,000 1,400 Climbing Fort Worth Center
Mon 12:30:18 PM 31.5625 -94.4414 30° Northeast 369 425 28,300 1,350 Climbing Fort Worth Center
Mon 12:31:18 PM 31.6528 -94.3775 31° Northeast 369 425 29,700 1,300 Climbing Fort Worth Center
Mon 12:32:18 PM 31.7411 -94.3183 30° Northeast 369 425 30,900 1,500 Climbing Fort Worth Center
Mon 12:33:18 PM 31.8294 -94.2542 32° Northeast 369 425 32,700 1,050 Climbing Fort Worth Center
Mon 12:34:18 PM 31.9175 -94.1925 31° Northeast 364 419 33,000 150 Climbing Fort Worth Center
Mon 12:35:18 PM 32.0139 -94.1231 31° Northeast 378 435 33,000 250 Level Fort Worth Center
Mon 12:36:18 PM 32.1186 -94.0531 30° Northeast 404 465 33,500 900 Climbing Fort Worth Center
Mon 12:37:18 PM 32.2083 -93.9833 33° Northeast 422 486 34,800 750 Climbing Fort Worth Center
Mon 12:38:18 PM 32.3064 -93.9061 34° Northeast 422 486 35,000 100 Climbing Fort Worth Center
Mon 12:39:18 PM 32.4133 -93.8403 27° Northeast 422 486 35,000  Level Fort Worth Center
Mon 12:40:18 PM 32.5194 -93.7622 32° Northeast 427 491 35,000  Level Fort Worth Center
Mon 12:41:18 PM 32.6239 -93.6864 31° Northeast 438 504 35,000  Level Fort Worth Center
Mon 12:42:18 PM 32.7300 -93.6131 30° Northeast 438 504 35,000  Level Fort Worth Center
Mon 12:43:18 PM 32.8342 -93.5392 31° Northeast 438 504 35,000  Level Fort Worth Center
Mon 12:44:18 PM 32.9383 -93.4631 32° Northeast 438 504 35,000  Level Fort Worth Center
Mon 12:45:18 PM 33.0444 -93.3864 31° Northeast 443 510 35,000  Level Fort Worth Center
Mon 12:46:18 PM 33.1506 -93.3097 31° Northeast 438 504 35,000  Level Fort Worth Center
Mon 12:47:18 PM 33.2525 -93.2356 31° Northeast 438 504 35,000  Level Fort Worth Center
Mon 12:48:18 PM 33.3606 -93.1583 31° Northeast 438 504 35,000  Level Fort Worth Center
Mon 12:49:18 PM 33.4642 -93.0811 32° Northeast 438 504 35,000  Level Fort Worth Center
Mon 12:49:33 PM 33.5008 -93.0575 28° Northeast 440 506 35,000  Level Memphis Center
Mon 12:50:33 PM 33.6047 -92.9811 31° Northeast 462 532 35,000  Level Memphis Center
Mon 12:51:33 PM 33.7106 -92.9042 31° Northeast 452 520 35,000  Level Memphis Center
Mon 12:52:33 PM 33.8164 -92.8300 30° Northeast 445 512 35,000  Level Memphis Center
Mon 12:53:33 PM 33.9181 -92.7528 32° Northeast 434 499 35,000  Level Memphis Center
Mon 12:54:33 PM 34.0219 -92.6753 32° Northeast 434 499 35,000  Level Memphis Center
Mon 12:55:33 PM 34.1233 -92.6003 31° Northeast 434 499 35,000  Level Memphis Center
Mon 12:56:33 PM 34.2250 -92.5275 31° Northeast 434 499 35,000  Level Memphis Center
Mon 12:57:33 PM 34.3306 -92.4522 30° Northeast 434 499 35,000  Level Memphis Center
Mon 12:58:33 PM 34.4300 -92.3742 33° Northeast 434 499 35,000  Level Memphis Center
Mon 12:59:33 PM 34.5311 -92.3008 31° Northeast 428 493 35,000  Level Memphis Center
Mon 01:00:33 PM 34.6325 -92.2225 32° Northeast 428 493 35,000  Level Memphis Center
Mon 01:01:33 PM 34.7439 -92.1667 22° Northeast 433 498 35,000  Level Memphis Center
Mon 01:02:33 PM 34.8531 -92.1183 20° North 423 487 35,000  Level Memphis Center
Mon 01:03:33 PM 34.9664 -92.0728 18° North 423 487 35,000  Level Memphis Center
Mon 01:04:33 PM 35.0797 -92.0292 17° North 423 487 35,000  Level Memphis Center
Mon 01:05:33 PM 35.1825 -91.9881 18° North 421 484 35,000  Level Memphis Center
Mon 01:06:33 PM 35.2997 -91.9419 18° North 429 494 35,000  Level Memphis Center
Mon 01:07:33 PM 35.4131 -91.8958 18° North 427 491 35,000  Level Memphis Center
Mon 01:08:33 PM 35.5242 -91.8519 18° North 420 483 35,000  Level Memphis Center
Mon 01:09:33 PM 35.6372 -91.8081 18° North 421 484 35,000  Level Memphis Center
Mon 01:10:33 PM 35.7631 -91.7589 18° North 426 490 35,000  Level Memphis Center
Mon 01:11:33 PM 35.8781 -91.7147 17° North 426 490 35,000 650 Level Memphis Center
Mon 01:12:33 PM 35.9850 -91.6703 19° North 413 475 36,300 1,000 Climbing Memphis Center
Mon 01:13:33 PM 36.0856 -91.6283 19° North 399 459 37,000 350 Climbing Memphis Center
Mon 01:14:33 PM 36.1922 -91.5864 18° North 399 459 37,000  Level Memphis Center
Mon 01:15:33 PM 36.3011 -91.5442 17° North 399 459 37,000  Level Memphis Center
Mon 01:16:33 PM 36.4097 -91.4992 18° North 405 466 37,000  Level Memphis Center
Mon 01:18:44 PM 36.6381 -91.4083 18° North 419 482 37,000  Level Kansas City Center
Mon 01:19:47 PM 36.7719 -91.3553 18° North 420 483 37,000  Level Kansas City Center
Mon 01:20:49 PM 36.8831 -91.3092 18° North 420 483 37,000  Level Kansas City Center
Mon 01:21:51 PM 36.9944 -91.2644 18° North 420 483 37,000  Level Kansas City Center
Mon 01:22:53 PM 37.1083 -91.2175 18° North 425 489 37,000  Level Kansas City Center
Mon 01:23:55 PM 37.2203 -91.1703 19° North 425 489 37,000  Level Kansas City Center
Mon 01:24:57 PM 37.3314 -91.1247 18° North 422 486 37,000  Level Kansas City Center
Mon 01:25:59 PM 37.4653 -91.0697 18° North 422 486 37,000  Level Kansas City Center
Mon 01:27:01 PM 37.5775 -91.0236 18° North 424 488 37,000  Level Kansas City Center
Mon 01:28:03 PM 37.6833 -90.9800 18° North 424 488 37,000  Level Kansas City Center
Mon 01:29:05 PM 37.7956 -90.9328 18° North 425 489 37,000  Level Kansas City Center
Mon 01:30:07 PM 37.9081 -90.8869 18° North 425 489 37,000  Level Kansas City Center
Mon 01:31:09 PM 38.0428 -90.8297 18° North 425 489 37,000  Level Kansas City Center
Mon 01:32:11 PM 38.1561 -90.7825 18° North 427 491 37,000  Level Kansas City Center
Mon 01:33:13 PM 38.2686 -90.7350 18° North 426 490 37,000  Level Kansas City Center
Mon 01:34:15 PM 38.3822 -90.6858 19° North 428 493 37,000  Level Kansas City Center
Mon 01:35:17 PM 38.5008 -90.6364 18° North 428 493 37,000  Level Kansas City Center
Mon 01:36:19 PM 38.6144 -90.5883 18° North 429 494 37,000  Level Kansas City Center
Mon 01:37:21 PM 38.7297 -90.5406 18° North 433 498 37,000  Level Kansas City Center
Mon 01:38:23 PM 38.8647 -90.4806 19° North 430 495 37,000  Level Kansas City Center
Mon 01:39:25 PM 38.9697 -90.3942 33° Northeast 431 496 37,000  Level Kansas City Center
Mon 01:40:27 PM 39.0744 -90.3103 32° Northeast 439 505 37,000  Level Kansas City Center
Mon 01:41:29 PM 39.1772 -90.2250 33° Northeast 438 504 37,000  Level Kansas City Center
Mon 01:42:31 PM 39.2803 -90.1406 32° Northeast 439 505 37,000  Level Kansas City Center
Mon 01:43:33 PM 39.3839 -90.0558 32° Northeast 441 507 37,000  Level Kansas City Center
Mon 01:44:35 PM 39.4869 -89.9694 33° Northeast 440 506 37,000  Level Kansas City Center
Mon 01:45:37 PM 39.5908 -89.8850 32° Northeast 441 507 37,000  Level Kansas City Center
Mon 01:46:39 PM 39.7142 -89.7811 33° Northeast 441 507 37,000  Level Kansas City Center
Mon 01:47:41 PM 39.8108 -89.7003 33° Northeast 441 507 37,000  Level Kansas City Center
Mon 01:48:43 PM 39.9125 -89.6100 34° Northeast 442 509 37,000  Level Kansas City Center
Mon 01:49:32 PM 39.9903 -89.5350 36° Northeast 443 510 37,000 -162 Level Chicago Center
Mon 01:50:34 PM 40.1092 -89.4211 36° Northeast 443 510 36,700 -532 Descending Chicago Center
Mon 01:51:36 PM 40.2106 -89.3244 36° Northeast 454 522 35,900 -720 Descending Chicago Center
Mon 01:52:39 PM 40.3125 -89.2275 36° Northeast 455 524 35,200 -677 Descending Chicago Center
Mon 01:53:40 PM 40.4125 -89.1297 37° Northeast 452 520 34,500 -683 Descending Chicago Center
Mon 01:54:42 PM 40.5125 -89.0331 36° Northeast 449 517 33,800 -677 Descending Chicago Center
Mon 01:55:44 PM 40.6117 -88.9378 36° Northeast 445 512 33,100 -387 Descending Chicago Center
Mon 01:56:46 PM 40.7197 -88.8328 36° Northeast 441 507 33,000 -48 Descending Chicago Center
Mon 01:57:48 PM 40.8136 -88.7408 37° Northeast 427 491 33,000  Level Chicago Center
Mon 01:58:50 PM 40.9422 -88.6653 24° Northeast 424 488 33,000  Level Chicago Center
Mon 01:59:51 PM 41.0494 -88.6017 24° Northeast 423 487 33,000  Level Chicago Center
Mon 02:00:53 PM 41.1594 -88.5394 23° Northeast 428 493 33,000 -242 Level Chicago Center
Mon 02:01:55 PM 41.2711 -88.4756 23° Northeast 436 502 32,500 -1,210 Descending Chicago Center
Mon 02:02:57 PM 41.3797 -88.4131 23° Northeast 426 490 30,500 -2,371 Descending Chicago Center
Mon 02:03:59 PM 41.4850 -88.3522 23° Northeast 413 475 27,600 -2,903 Descending Chicago Center
Mon 02:05:01 PM 41.5953 -88.3183 13° North 410 472 24,500 -1,742 Descending Chicago Center
Mon 02:06:03 PM 41.7247 -88.3161 North 390 449 24,000 -439 Descending Chicago Center
Mon 02:07:04 PM 41.8428 -88.3147 North 417 480 23,600 -683 Descending Chicago Center
Mon 02:08:06 PM 41.9619 -88.3117 North 427 491 22,600 -1,016 Descending Chicago Center
Mon 02:09:08 PM 42.0817 -88.3100 North 430 495 21,500 -1,016 Descending Chicago Center
Mon 02:10:10 PM 42.2008 -88.3103 360° North 430 495 20,500 -919 Descending Chicago Center
Mon 02:11:12 PM 42.3206 -88.3081 North 431 496 19,600 -1,268 Descending Chicago Center
Mon 02:12:13 PM 42.4447 -88.3056 North 422 486 17,900 -2,244 Descending Chicago Center
Mon 02:13:15 PM 42.5506 -88.3056 360° North 385 443 15,000 -3,387 Descending Chicago Center
Mon 02:14:17 PM 42.6722 -88.2986 North 378 435 10,900 -2,323 Descending Chicago Center
Mon 02:15:19 PM 42.7386 -88.1986 48° Northeast 346 398 10,200 -829 Descending Chicago Center
Mon 02:16:20 PM 42.7917 -88.1156 49° Northeast 301 346 9,200 -1,268 Descending Chicago Center
Mon 02:17:22 PM 42.8322 -88.0269 58° Northeast 281 323 7,600 -1,113 Descending Chicago Center
Mon 02:18:24 PM 42.8606 -87.9311 68° East 274 315 6,900 -677 Descending Chicago Center
Mon 02:19:26 PM 42.8853 -87.8425 69° East 254 292 6,200 -1,452 Descending Chicago Center
Mon 02:20:28 PM 42.9153 -87.7375 69° East 254 292 3,900 -1,805 Descending Chicago Center
Mon 02:21:29 PM 42.9664 -87.7419 356° North 228 262 2,500 -927 Descending Chicago Center
Mon 02:22:31 PM 42.9653 -87.8139 269° West 202 232 2,000 -484 Descending Chicago Center
Mon 02:23:33 PM 42.9503 -87.8633 248° West 178 205 1,500 -484 Descending Chicago Center
Mon 02:25:00 PM 42.9333 -87.8833 255° West  Level FlightAware Approximate
Mon 02:32:00 PM 42.9469 -87.8971 255° West  Level Estimated

Login

Don't have an account? Register now (free) for customized features, flight alerts, and more!